Time;durP1;ratioP1;P1;durP2;ratioP2;P2;SDS_P1;SDS_P2;PMS_P1;PMS_P2;Temp;Humidity;BMP_temperature;BMP_pressure;BME280_temperature;BME280_humidity;BME280_pressure;Samples;Min_cycle;Max_cycle;Signal;HPM_P1;HPM_P2
2024/04/13 00:00:11;;;;;;;7.47;3.35;;;;;;;;;;5511117;26;20074;-78
2024/04/13 00:02:56;;;;;;;10.70;3.50;;;;;;;;;;5512744;26;19997;-78
2024/04/13 00:05:41;;;;;;;8.38;4.10;;;;;;;;;;5498008;26;19998;-78
2024/04/13 00:08:29;;;;;;;8.18;4.05;;;;;;;;;;5491582;26;20045;-78
2024/04/13 00:11:14;;;;;;;9.25;4.00;;;;;;;;;;5505874;26;20445;-78
2024/04/13 00:13:59;;;;;;;6.85;3.50;;;;;;;;;;5491030;26;20038;-79
2024/04/13 00:16:44;;;;;;;7.65;3.50;;;;;;;;;;5502035;26;19998;-78
2024/04/13 00:19:30;;;;;;;7.35;3.42;;;;;;;;;;5480590;26;20029;-78
2024/04/13 00:22:15;;;;;;;7.00;2.95;;;;;;;;;;5500465;26;20006;-78
2024/04/13 00:25:02;;;;;;;9.10;3.70;;;;;;;;;;5490828;26;20008;-80
2024/04/13 00:27:47;;;;;;;6.45;3.20;;;;;;;;;;5512840;26;20456;-78
2024/04/13 00:30:33;;;;;;;7.38;2.97;;;;;;;;;;5512186;26;19998;-78
2024/04/13 00:33:18;;;;;;;7.57;3.70;;;;;;;;;;5507249;26;20001;-78
2024/04/13 00:36:05;;;;;;;8.38;2.83;;;;;;;;;;5510720;26;19994;-78
2024/04/13 00:38:50;;;;;;;7.35;2.95;;;;;;;;;;5504149;26;20009;-78
2024/04/13 00:41:36;;;;;;;7.57;3.33;;;;;;;;;;5489589;26;20024;-78
2024/04/13 00:44:22;;;;;;;8.95;4.60;;;;;;;;;;5493518;26;20001;-78
2024/04/13 00:47:07;;;;;;;9.02;3.97;;;;;;;;;;5500410;26;20002;-79
2024/04/13 00:49:55;;;;;;;6.38;3.42;;;;;;;;;;5501789;26;20531;-78
2024/04/13 00:52:41;;;;;;;10.00;3.97;;;;;;;;;;5500341;26;19997;-78
2024/04/13 00:55:28;;;;;;;8.52;3.42;;;;;;;;;;5506535;26;20001;-78
2024/04/13 00:58:14;;;;;;;7.82;3.58;;;;;;;;;;5501775;26;19997;-79
2024/04/13 01:00:59;;;;;;;7.00;3.15;;;;;;;;;;5499880;26;20339;-79
2024/04/13 01:03:45;;;;;;;7.93;3.20;;;;;;;;;;5503500;26;20016;-79
2024/04/13 01:06:32;;;;;;;8.35;3.63;;;;;;;;;;5498160;26;19997;-78
2024/04/13 01:09:18;;;;;;;15.45;3.45;;;;;;;;;;5489010;26;20016;-79
2024/04/13 01:12:06;;;;;;;7.57;3.60;;;;;;;;;;5494902;26;19998;-79
2024/04/13 01:14:51;;;;;;;11.00;3.90;;;;;;;;;;5482948;26;20088;-79
2024/04/13 01:17:37;;;;;;;7.07;3.40;;;;;;;;;;5500679;26;20001;-79
2024/04/13 01:20:22;;;;;;;8.82;3.72;;;;;;;;;;5492854;26;20013;-79
2024/04/13 01:23:11;;;;;;;11.95;3.83;;;;;;;;;;5492114;26;20455;-79
2024/04/13 01:25:58;;;;;;;6.53;3.28;;;;;;;;;;5512309;26;20002;-80
2024/04/13 01:28:43;;;;;;;8.15;3.75;;;;;;;;;;5485822;26;20410;-79
2024/04/13 01:31:29;;;;;;;7.70;3.60;;;;;;;;;;5495097;26;20084;-79
2024/04/13 01:34:14;;;;;;;11.60;3.95;;;;;;;;;;5488899;26;20005;-79
2024/04/13 01:37:00;;;;;;;8.88;3.83;;;;;;;;;;5507151;26;20184;-78
2024/04/13 01:39:45;;;;;;;6.03;3.40;;;;;;;;;;5512007;26;20561;-78
2024/04/13 01:42:30;;;;;;;6.40;3.03;;;;;;;;;;5499033;26;20525;-79
2024/04/13 01:45:15;;;;;;;9.20;3.50;;;;;;;;;;5502121;26;20309;-78
2024/04/13 01:48:01;;;;;;;7.25;3.30;;;;;;;;;;5494981;26;20461;-79
2024/04/13 01:50:47;;;;;;;8.43;3.00;;;;;;;;;;5500986;26;20415;-79
2024/04/13 01:53:32;;;;;;;7.40;3.50;;;;;;;;;;5504670;26;20013;-79
2024/04/13 01:56:17;;;;;;;11.38;3.38;;;;;;;;;;5493010;26;20008;-79
2024/04/13 01:59:03;;;;;;;10.18;3.50;;;;;;;;;;5495922;26;20676;-78
2024/04/13 02:01:49;;;;;;;7.35;3.30;;;;;;;;;;5512356;26;20685;-78
2024/04/13 02:04:34;;;;;;;9.60;3.60;;;;;;;;;;5501420;26;20006;-79
2024/04/13 02:07:19;;;;;;;9.38;4.43;;;;;;;;;;5501194;26;20009;-79
2024/04/13 02:10:06;;;;;;;10.02;3.30;;;;;;;;;;5508997;26;20005;-79
2024/04/13 02:12:51;;;;;;;5.50;2.95;;;;;;;;;;5499398;26;19997;-78
2024/04/13 02:15:36;;;;;;;7.63;3.08;;;;;;;;;;5479068;26;20049;-79
2024/04/13 02:18:21;;;;;;;7.18;3.38;;;;;;;;;;5497548;26;20001;-79
2024/04/13 02:21:07;;;;;;;12.05;3.65;;;;;;;;;;5496678;26;20074;-78
2024/04/13 02:23:52;;;;;;;8.57;3.42;;;;;;;;;;5489246;26;20436;-78
2024/04/13 02:26:37;;;;;;;7.18;3.40;;;;;;;;;;5477256;26;20472;-79
2024/04/13 02:29:25;;;;;;;6.97;3.50;;;;;;;;;;5489162;26;20456;-78
2024/04/13 02:32:11;;;;;;;8.25;3.50;;;;;;;;;;5503864;26;20012;-79
2024/04/13 02:35:17;;;;;;;7.22;3.33;;;;;;;;;;5502497;26;19998;-79
2024/04/13 02:38:03;;;;;;;8.95;3.38;;;;;;;;;;5490555;26;20353;-77
2024/04/13 02:40:53;;;;;;;9.32;3.40;;;;;;;;;;5489951;26;20002;-79
2024/04/13 02:43:38;;;;;;;6.80;2.97;;;;;;;;;;5480463;26;20089;-79
2024/04/13 02:46:24;;;;;;;8.52;3.30;;;;;;;;;;5504907;26;19998;-78
2024/04/13 02:49:09;;;;;;;9.05;2.95;;;;;;;;;;5511663;26;19994;-78
2024/04/13 02:51:54;;;;;;;6.88;3.08;;;;;;;;;;5507365;26;20002;-79
2024/04/13 02:54:39;;;;;;;6.18;3.00;;;;;;;;;;5505506;26;20069;-78
2024/04/13 02:57:25;;;;;;;5.80;3.38;;;;;;;;;;5508213;26;19998;-78
2024/04/13 03:00:19;;;;;;;8.93;3.22;;;;;;;;;;5505116;26;20025;-79
2024/04/13 03:03:04;;;;;;;7.88;3.28;;;;;;;;;;5491910;26;20026;-78
2024/04/13 03:06:01;;;;;;;6.97;3.40;;;;;;;;;;5516980;26;20008;-79
2024/04/13 03:08:50;;;;;;;6.55;3.05;;;;;;;;;;5511720;26;20021;-78
2024/04/13 03:11:35;;;;;;;5.45;3.03;;;;;;;;;;5511071;26;20073;-79
2024/04/13 03:14:21;;;;;;;6.60;3.88;;;;;;;;;;5511451;26;20008;-78
2024/04/13 03:17:06;;;;;;;8.80;4.10;;;;;;;;;;5511473;26;20832;-79
2024/04/13 03:19:52;;;;;;;7.28;3.65;;;;;;;;;;5512691;26;20415;-78
2024/04/13 03:22:37;;;;;;;6.32;3.22;;;;;;;;;;5513337;26;19997;-79
2024/04/13 03:25:23;;;;;;;8.57;4.03;;;;;;;;;;5513587;26;20835;-79
2024/04/13 03:28:08;;;;;;;7.97;3.03;;;;;;;;;;5508723;26;20724;-78
2024/04/13 03:30:54;;;;;;;5.82;3.08;;;;;;;;;;5489259;26;20520;-78
2024/04/13 03:33:39;;;;;;;6.05;3.55;;;;;;;;;;5498308;26;20005;-79
2024/04/13 03:36:26;;;;;;;7.82;3.60;;;;;;;;;;5514487;26;20002;-78
2024/04/13 03:39:11;;;;;;;8.85;3.42;;;;;;;;;;5499246;26;20400;-78
2024/04/13 03:41:56;;;;;;;10.27;3.95;;;;;;;;;;5488551;26;20005;-78
2024/04/13 03:44:42;;;;;;;9.98;3.88;;;;;;;;;;5477301;26;20480;-78
2024/04/13 03:47:27;;;;;;;10.57;4.80;;;;;;;;;;5451806;26;20092;-78
2024/04/13 03:50:13;;;;;;;8.30;4.18;;;;;;;;;;5457855;26;20012;-79
2024/04/13 03:52:58;;;;;;;6.13;3.33;;;;;;;;;;5514110;26;20336;-78
2024/04/13 03:55:44;;;;;;;9.32;3.40;;;;;;;;;;5514128;26;20005;-79
2024/04/13 03:58:29;;;;;;;8.32;4.00;;;;;;;;;;5487737;26;20340;-78
2024/04/13 04:01:15;;;;;;;6.53;3.78;;;;;;;;;;5513717;26;20009;-78
2024/04/13 04:04:00;;;;;;;5.85;2.90;;;;;;;;;;5478703;26;20080;-77
2024/04/13 04:06:46;;;;;;;9.70;3.58;;;;;;;;;;5451622;26;20010;-78
2024/04/13 04:09:33;;;;;;;8.55;3.83;;;;;;;;;;5451204;26;20006;-78
2024/04/13 04:12:18;;;;;;;6.65;4.07;;;;;;;;;;5451293;26;20002;-78
2024/04/13 04:15:04;;;;;;;8.38;3.03;;;;;;;;;;5451579;26;20149;-77
2024/04/13 04:17:49;;;;;;;8.65;3.40;;;;;;;;;;5451326;26;20002;-78
2024/04/13 04:20:34;;;;;;;7.50;3.20;;;;;;;;;;5451497;26;20030;-77
2024/04/13 04:23:21;;;;;;;5.90;3.25;;;;;;;;;;5451298;26;19998;-79
2024/04/13 04:26:06;;;;;;;10.95;3.50;;;;;;;;;;5450795;26;20374;-78
2024/04/13 04:28:51;;;;;;;8.77;3.70;;;;;;;;;;5450998;26;20071;-78
2024/04/13 04:31:37;;;;;;;8.02;3.58;;;;;;;;;;5451487;26;20012;-78
2024/04/13 04:34:22;;;;;;;10.77;3.70;;;;;;;;;;5451414;26;20010;-78
2024/04/13 04:37:07;;;;;;;7.13;3.30;;;;;;;;;;5450955;26;20013;-78
2024/04/13 04:39:53;;;;;;;4.50;2.90;;;;;;;;;;5450295;26;20080;-78
2024/04/13 04:42:38;;;;;;;6.50;3.10;;;;;;;;;;5459037;26;20004;-77
2024/04/13 04:45:23;;;;;;;7.72;3.70;;;;;;;;;;5496082;26;20452;-79
2024/04/13 04:48:08;;;;;;;7.25;3.38;;;;;;;;;;5507771;26;20011;-77
2024/04/13 04:50:56;;;;;;;11.02;4.28;;;;;;;;;;5508409;26;20005;-77
2024/04/13 04:53:41;;;;;;;8.45;3.67;;;;;;;;;;5506205;26;20009;-77
2024/04/13 04:56:26;;;;;;;6.85;3.35;;;;;;;;;;5500260;26;20010;-77
2024/04/13 04:59:11;;;;;;;10.73;3.60;;;;;;;;;;5487983;26;20036;-77
2024/04/13 05:01:57;;;;;;;6.70;2.85;;;;;;;;;;5488699;26;20524;-77
2024/04/13 05:04:44;;;;;;;6.10;3.42;;;;;;;;;;5509766;26;20001;-77
2024/04/13 05:07:30;;;;;;;6.38;3.42;;;;;;;;;;5500162;26;20001;-77
2024/04/13 05:10:15;;;;;;;8.63;3.63;;;;;;;;;;5486520;26;19998;-78
2024/04/13 05:13:01;;;;;;;7.05;3.13;;;;;;;;;;5494613;26;20009;-78
2024/04/13 05:15:47;;;;;;;6.70;3.58;;;;;;;;;;5503861;26;19998;-77
2024/04/13 05:18:32;;;;;;;9.15;4.28;;;;;;;;;;5492107;26;19997;-78
2024/04/13 05:21:17;;;;;;;7.22;3.55;;;;;;;;;;5503071;26;20467;-78
2024/04/13 05:24:02;;;;;;;7.18;3.60;;;;;;;;;;5497965;26;19999;-78
2024/04/13 05:26:48;;;;;;;7.93;3.63;;;;;;;;;;5498454;25;20331;-78
2024/04/13 05:29:34;;;;;;;7.38;3.70;;;;;;;;;;5506469;25;20450;-77
2024/04/13 05:32:19;;;;;;;11.27;4.10;;;;;;;;;;5503427;25;20001;-78
2024/04/13 05:35:05;;;;;;;8.45;4.20;;;;;;;;;;5494716;25;20206;-77
2024/04/13 05:37:50;;;;;;;8.98;3.75;;;;;;;;;;5505063;25;20015;-78
2024/04/13 05:40:36;;;;;;;6.38;3.47;;;;;;;;;;5481870;25;20001;-79
2024/04/13 05:43:22;;;;;;;6.63;3.55;;;;;;;;;;5506680;25;19996;-78
2024/04/13 05:46:07;;;;;;;7.00;3.90;;;;;;;;;;5500815;25;20005;-78
2024/04/13 05:48:52;;;;;;;8.88;3.95;;;;;;;;;;5500419;25;20005;-78
2024/04/13 05:51:37;;;;;;;6.90;3.90;;;;;;;;;;5501392;25;20017;-79
2024/04/13 05:54:22;;;;;;;8.45;4.55;;;;;;;;;;5510857;25;20329;-78
2024/04/13 05:57:08;;;;;;;8.80;3.55;;;;;;;;;;5522065;25;20079;-78
2024/04/13 05:59:53;;;;;;;11.40;4.00;;;;;;;;;;5507278;25;20065;-78
2024/04/13 06:02:38;;;;;;;7.43;4.20;;;;;;;;;;5518285;25;20000;-78
2024/04/13 06:05:23;;;;;;;9.88;4.35;;;;;;;;;;5515716;25;20095;-78
2024/04/13 06:08:09;;;;;;;11.57;3.88;;;;;;;;;;5503899;25;20121;-78
2024/04/13 06:10:55;;;;;;;6.93;4.00;;;;;;;;;;5498799;25;20010;-78
2024/04/13 06:13:41;;;;;;;12.52;4.13;;;;;;;;;;5486054;25;20001;-78
2024/04/13 06:16:26;;;;;;;9.27;3.85;;;;;;;;;;5517532;25;20404;-78
2024/04/13 06:19:13;;;;;;;9.32;3.97;;;;;;;;;;5500816;25;20115;-79
2024/04/13 06:21:58;;;;;;;7.85;3.72;;;;;;;;;;5503716;25;20016;-78
2024/04/13 06:24:44;;;;;;;8.15;3.72;;;;;;;;;;5505468;25;20000;-79
2024/04/13 06:27:30;;;;;;;8.18;3.50;;;;;;;;;;5497490;25;20019;-78
2024/04/13 06:30:15;;;;;;;6.32;3.47;;;;;;;;;;5505316;25;20450;-79
2024/04/13 06:33:00;;;;;;;9.50;3.58;;;;;;;;;;5485232;26;20013;-80
2024/04/13 06:35:49;;;;;;;9.80;4.30;;;;;;;;;;5499892;25;20002;-78
2024/04/13 06:38:34;;;;;;;7.77;3.87;;;;;;;;;;5494375;25;20444;-79
2024/04/13 06:41:20;;;;;;;8.32;3.92;;;;;;;;;;5504936;25;20011;-79
2024/04/13 06:44:06;;;;;;;12.77;3.83;;;;;;;;;;5505391;25;20012;-79
2024/04/13 06:46:51;;;;;;;5.85;3.95;;;;;;;;;;5486249;25;19996;-79
2024/04/13 06:49:36;;;;;;;6.63;3.50;;;;;;;;;;5517244;25;20011;-79
2024/04/13 06:52:21;;;;;;;8.77;4.07;;;;;;;;;;5468457;26;20012;-79
2024/04/13 06:55:07;;;;;;;8.77;5.43;;;;;;;;;;5486144;25;20621;-79
2024/04/13 06:57:52;;;;;;;10.85;3.75;;;;;;;;;;5497491;25;19997;-79
2024/04/13 07:00:37;;;;;;;7.25;3.85;;;;;;;;;;5489159;25;20667;-79
2024/04/13 07:03:23;;;;;;;10.07;4.15;;;;;;;;;;5494121;25;20005;-79
2024/04/13 07:06:08;;;;;;;10.90;4.25;;;;;;;;;;5503792;25;19992;-79
2024/04/13 07:08:53;;;;;;;10.25;4.30;;;;;;;;;;5504913;25;19997;-80
2024/04/13 07:11:39;;;;;;;7.93;3.22;;;;;;;;;;5479036;25;20025;-80
2024/04/13 07:14:24;;;;;;;8.43;3.40;;;;;;;;;;5501944;25;20012;-80
2024/04/13 07:17:09;;;;;;;8.32;3.38;;;;;;;;;;5499997;25;19996;-79
2024/04/13 07:19:54;;;;;;;6.72;2.90;;;;;;;;;;5519444;25;20003;-79
2024/04/13 07:22:40;;;;;;;10.15;3.55;;;;;;;;;;5513677;25;19997;-80
2024/04/13 07:25:25;;;;;;;8.98;3.47;;;;;;;;;;5479132;26;19998;-80
2024/04/13 07:28:10;;;;;;;5.20;2.58;;;;;;;;;;5479478;26;20083;-80
2024/04/13 07:30:56;;;;;;;8.60;3.20;;;;;;;;;;5451083;26;20025;-80
2024/04/13 07:33:41;;;;;;;6.95;3.00;;;;;;;;;;5478932;26;20494;-81
2024/04/13 07:36:26;;;;;;;10.88;2.70;;;;;;;;;;5476681;26;20411;-81
2024/04/13 07:39:12;;;;;;;6.65;2.90;;;;;;;;;;5466359;26;20003;-81
2024/04/13 07:41:57;;;;;;;6.15;2.95;;;;;;;;;;5478524;26;20013;-81
2024/04/13 07:44:42;;;;;;;8.93;2.90;;;;;;;;;;5472803;26;20009;-81
2024/04/13 07:47:28;;;;;;;7.68;3.83;;;;;;;;;;5471391;26;20003;-81
2024/04/13 07:50:14;;;;;;;12.07;4.18;;;;;;;;;;5482022;26;20010;-81
2024/04/13 07:52:59;;;;;;;6.85;4.15;;;;;;;;;;5458267;26;20065;-81
2024/04/13 07:55:44;;;;;;;8.93;4.55;;;;;;;;;;5476293;26;20012;-80
2024/04/13 07:58:29;;;;;;;14.15;4.35;;;;;;;;;;5480227;26;20002;-80
2024/04/13 08:01:15;;;;;;;10.80;3.80;;;;;;;;;;5470051;26;19998;-79
2024/04/13 08:04:00;;;;;;;12.32;3.80;;;;;;;;;;5478532;26;20016;-80
2024/04/13 08:06:45;;;;;;;10.45;4.65;;;;;;;;;;5483992;26;20001;-80
2024/04/13 08:09:30;;;;;;;7.93;3.83;;;;;;;;;;5474673;26;20401;-80
2024/04/13 08:12:16;;;;;;;12.18;3.65;;;;;;;;;;5478083;26;20043;-80
2024/04/13 08:15:02;;;;;;;13.23;3.60;;;;;;;;;;5486659;26;20095;-80
2024/04/13 08:17:47;;;;;;;9.25;4.00;;;;;;;;;;5477195;26;20009;-80
2024/04/13 08:20:33;;;;;;;10.73;4.18;;;;;;;;;;5482127;26;20366;-81
2024/04/13 08:23:19;;;;;;;9.27;3.65;;;;;;;;;;5484428;26;20016;-81
2024/04/13 08:26:05;;;;;;;8.38;3.88;;;;;;;;;;5486962;26;19997;-81
2024/04/13 08:28:50;;;;;;;8.48;3.42;;;;;;;;;;5487030;26;20002;-80
2024/04/13 08:31:35;;;;;;;10.18;3.60;;;;;;;;;;5465272;26;20003;-80
2024/04/13 08:34:21;;;;;;;8.52;3.63;;;;;;;;;;5440512;26;20007;-80
2024/04/13 08:37:06;;;;;;;7.45;3.38;;;;;;;;;;5467515;26;19995;-80
2024/04/13 08:39:52;;;;;;;7.97;3.40;;;;;;;;;;5443419;26;20014;-80
2024/04/13 08:42:40;;;;;;;8.05;3.88;;;;;;;;;;5450451;26;20010;-80
2024/04/13 08:45:26;;;;;;;7.32;4.00;;;;;;;;;;5457142;26;20011;-80
2024/04/13 08:48:11;;;;;;;12.30;3.95;;;;;;;;;;5443300;26;20080;-81
2024/04/13 08:50:58;;;;;;;5.70;3.60;;;;;;;;;;5443424;26;20001;-80
2024/04/13 08:53:44;;;;;;;7.88;2.95;;;;;;;;;;5443795;26;20559;-81
2024/04/13 08:56:29;;;;;;;6.47;2.35;;;;;;;;;;5443297;26;20560;-81
2024/04/13 08:59:16;;;;;;;9.30;3.60;;;;;;;;;;5443085;26;20013;-79
2024/04/13 09:02:04;;;;;;;8.48;3.17;;;;;;;;;;5443483;26;19999;-79
2024/04/13 09:04:53;;;;;;;6.43;2.70;;;;;;;;;;5442462;26;20003;-80
2024/04/13 09:07:39;;;;;;;5.85;2.58;;;;;;;;;;5443481;26;20003;-81
2024/04/13 09:10:25;;;;;;;6.97;2.72;;;;;;;;;;5443513;26;19995;-80
2024/04/13 09:13:11;;;;;;;7.05;3.45;;;;;;;;;;5458975;26;20002;-81
2024/04/13 09:15:57;;;;;;;4.68;2.40;;;;;;;;;;5479286;26;20021;-81
2024/04/13 09:18:45;;;;;;;7.05;2.40;;;;;;;;;;5489806;26;20026;-81
2024/04/13 09:21:31;;;;;;;6.72;2.58;;;;;;;;;;5475733;26;20540;-80
2024/04/13 09:24:16;;;;;;;5.60;2.28;;;;;;;;;;5477374;26;20001;-80
2024/04/13 09:27:05;;;;;;;6.75;2.72;;;;;;;;;;5456578;26;20509;-81
2024/04/13 09:29:51;;;;;;;;;;;;;;;;;;5469211;26;20340;-81
2024/04/13 09:32:36;;;;;;;9.32;2.47;;;;;;;;;;5463679;26;19931;-82
2024/04/13 09:35:21;;;;;;;5.30;2.13;;;;;;;;;;5433086;26;20012;-80
2024/04/13 09:38:07;;;;;;;4.53;2.05;;;;;;;;;;5471804;26;20021;-82
2024/04/13 09:40:56;;;;;;;5.53;1.98;;;;;;;;;;5452239;26;20404;-83
2024/04/13 09:43:45;;;;;;;9.85;3.05;;;;;;;;;;5454445;26;20037;-81
2024/04/13 09:46:30;;;;;;;3.05;1.52;;;;;;;;;;5478757;26;19993;-82
2024/04/13 09:49:15;;;;;;;6.20;2.28;;;;;;;;;;5459631;26;19997;-82
2024/04/13 09:52:01;;;;;;;5.75;2.00;;;;;;;;;;5449726;26;20009;-81
2024/04/13 09:54:46;;;;;;;4.13;2.13;;;;;;;;;;5459404;26;20441;-85
2024/04/13 09:57:32;;;;;;;6.55;2.45;;;;;;;;;;5445668;26;20008;-82
2024/04/13 10:00:17;;;;;;;6.82;1.67;;;;;;;;;;5453547;26;20398;-82
2024/04/13 10:03:02;;;;;;;3.85;1.83;;;;;;;;;;5483697;26;19998;-84
2024/04/13 10:05:48;;;;;;;5.40;1.90;;;;;;;;;;5468502;26;20001;-83
2024/04/13 10:08:33;;;;;;;2.83;1.65;;;;;;;;;;5453602;26;19999;-86
2024/04/13 10:11:20;;;;;;;14.43;2.60;;;;;;;;;;5461691;26;20005;-84
2024/04/13 10:14:06;;;;;;;5.85;2.10;;;;;;;;;;5472074;26;20001;-83
2024/04/13 10:16:52;;;;;;;4.43;1.85;;;;;;;;;;5460143;26;20018;-87
2024/04/13 10:19:37;;;;;;;3.70;1.63;;;;;;;;;;5480306;26;20009;-88
2024/04/13 10:22:23;;;;;;;7.97;2.00;;;;;;;;;;5469126;26;20002;-88
2024/04/13 10:25:08;;;;;;;7.05;1.95;;;;;;;;;;5489190;26;20001;-84
2024/04/13 10:28:23;;;;;;;10.98;2.28;;;;;;;;;;5500511;26;20073;-87
2024/04/13 10:31:18;;;;;;;6.45;2.17;;;;;;;;;;5489804;26;20009;-86
2024/04/13 10:34:03;;;;;;;3.50;1.52;;;;;;;;;;5492809;26;20033;-87
2024/04/13 10:36:55;;;;;;;8.27;2.10;;;;;;;;;;5492707;26;20027;-86
2024/04/13 10:39:51;;;;;;;10.02;2.75;;;;;;;;;;5472071;26;20057;-86
2024/04/13 10:42:37;;;;;;;10.10;2.50;;;;;;;;;;5492477;26;20346;-88
2024/04/13 10:45:23;;;;;;;3.15;1.80;;;;;;;;;;5462999;26;20005;-86
2024/04/13 10:48:09;;;;;;;7.13;2.25;;;;;;;;;;5491228;26;20546;-85
2024/04/13 10:50:55;;;;;;;5.57;2.00;;;;;;;;;;5491333;26;19994;-86
2024/04/13 10:53:41;;;;;;;4.68;1.80;;;;;;;;;;5491065;26;20083;-83
2024/04/13 10:56:26;;;;;;;11.00;2.95;;;;;;;;;;5490334;26;20524;-83
2024/04/13 10:59:12;;;;;;;5.13;2.15;;;;;;;;;;5489581;26;20017;-81
2024/04/13 11:01:59;;;;;;;6.65;2.35;;;;;;;;;;5488780;26;19993;-80
2024/04/13 11:04:44;;;;;;;5.07;2.45;;;;;;;;;;5489713;26;20346;-77
2024/04/13 11:07:30;;;;;;;7.70;2.58;;;;;;;;;;5462076;26;20049;-79
2024/04/13 11:10:15;;;;;;;4.82;2.67;;;;;;;;;;5488888;26;19997;-76
2024/04/13 11:13:02;;;;;;;6.57;2.42;;;;;;;;;;5477001;26;20552;-77
2024/04/13 11:15:47;;;;;;;9.90;2.85;;;;;;;;;;5488001;26;20451;-76
2024/04/13 11:18:33;;;;;;;18.02;3.97;;;;;;;;;;5459491;26;20087;-78
2024/04/13 11:21:20;;;;;;;10.75;2.60;;;;;;;;;;5484176;26;20025;-78
2024/04/13 11:24:08;;;;;;;8.05;2.22;;;;;;;;;;5489886;25;19989;-77
2024/04/13 11:26:52;;;;;;;9.68;3.33;;;;;;;;;;5512620;26;20013;-77
2024/04/13 11:29:38;;;;;;;8.70;2.42;;;;;;;;;;5512369;26;20005;-78
2024/04/13 11:32:25;;;;;;;7.43;2.50;;;;;;;;;;5512576;26;19993;-77
2024/04/13 11:35:14;;;;;;;6.25;2.58;;;;;;;;;;5511631;26;20001;-77
2024/04/13 11:38:00;;;;;;;6.38;2.35;;;;;;;;;;5510215;26;19997;-77
2024/04/13 11:40:48;;;;;;;5.65;2.33;;;;;;;;;;5462694;26;20005;-76
2024/04/13 11:43:34;;;;;;;6.75;2.28;;;;;;;;;;5488052;26;20105;-77
2024/04/13 11:46:20;;;;;;;5.07;2.10;;;;;;;;;;5462461;26;20001;-77
2024/04/13 11:49:05;;;;;;;5.25;2.20;;;;;;;;;;5487595;26;20001;-77
2024/04/13 11:51:50;;;;;;;9.23;3.58;;;;;;;;;;5488740;26;20001;-75
2024/04/13 11:54:36;;;;;;;6.78;2.67;;;;;;;;;;5472056;26;19997;-76
2024/04/13 11:57:22;;;;;;;4.95;2.53;;;;;;;;;;5462999;26;20073;-77
2024/04/13 12:00:07;;;;;;;5.80;2.83;;;;;;;;;;5488113;26;20420;-76
2024/04/13 12:02:54;;;;;;;7.75;2.50;;;;;;;;;;5488357;26;20012;-76
2024/04/13 12:05:39;;;;;;;4.85;2.10;;;;;;;;;;5488398;26;19998;-76
2024/04/13 12:08:25;;;;;;;6.22;2.20;;;;;;;;;;5488457;26;20019;-76
2024/04/13 12:11:10;;;;;;;5.70;2.03;;;;;;;;;;5491324;25;19997;-76
2024/04/13 12:13:56;;;;;;;6.15;2.17;;;;;;;;;;5471313;26;20457;-77
2024/04/13 12:16:44;;;;;;;7.05;2.42;;;;;;;;;;5465680;26;20002;-74
2024/04/13 12:19:29;;;;;;;8.07;2.30;;;;;;;;;;5490446;26;20511;-75
2024/04/13 12:22:14;;;;;;;3.72;2.10;;;;;;;;;;5492858;26;20013;-75
2024/04/13 12:24:59;;;;;;;7.05;2.00;;;;;;;;;;5471543;26;20574;-76
2024/04/13 12:27:45;;;;;;;4.95;1.80;;;;;;;;;;5482990;26;20245;-76
2024/04/13 12:30:30;;;;;;;3.67;1.83;;;;;;;;;;5479938;26;19997;-76
2024/04/13 12:33:15;;;;;;;4.05;2.15;;;;;;;;;;5491624;26;20012;-77
2024/04/13 12:36:01;;;;;;;6.30;2.08;;;;;;;;;;5490346;26;20072;-76
2024/04/13 12:38:46;;;;;;;5.65;2.33;;;;;;;;;;5480468;26;19998;-77
2024/04/13 12:41:31;;;;;;;5.82;2.08;;;;;;;;;;5480059;26;20035;-75
2024/04/13 12:44:16;;;;;;;9.43;2.60;;;;;;;;;;5487938;26;19997;-76
2024/04/13 12:47:02;;;;;;;4.90;2.00;;;;;;;;;;5490834;26;19998;-76
2024/04/13 12:49:47;;;;;;;9.00;2.47;;;;;;;;;;5490454;26;20002;-76
2024/04/13 12:52:33;;;;;;;8.73;2.97;;;;;;;;;;5490445;26;20008;-76
2024/04/13 12:55:18;;;;;;;30.48;8.82;;;;;;;;;;5490664;26;20482;-75
2024/04/13 12:58:03;;;;;;;21.48;6.05;;;;;;;;;;5491453;26;20285;-76
2024/04/13 13:00:49;;;;;;;39.03;12.43;;;;;;;;;;5491255;26;20037;-74
2024/04/13 13:03:34;;;;;;;16.63;4.70;;;;;;;;;;5491766;26;20005;-75
2024/04/13 13:06:19;;;;;;;35.42;10.95;;;;;;;;;;5491164;26;20001;-75
2024/04/13 13:09:06;;;;;;;32.50;10.35;;;;;;;;;;5490686;26;20033;-73
2024/04/13 13:11:51;;;;;;;12.35;5.18;;;;;;;;;;5490564;26;20012;-75
2024/04/13 13:14:37;;;;;;;21.88;7.65;;;;;;;;;;5429120;26;19999;-75
2024/04/13 13:17:22;;;;;;;14.88;5.28;;;;;;;;;;5469958;26;20009;-75
2024/04/13 13:20:08;;;;;;;16.90;5.60;;;;;;;;;;5490591;26;20025;-83
2024/04/13 13:22:53;;;;;;;6.15;2.50;;;;;;;;;;5491196;26;20349;-84
2024/04/13 13:25:39;;;;;;;6.18;2.30;;;;;;;;;;5486782;26;20026;-86
2024/04/13 13:28:24;;;;;;;8.73;2.30;;;;;;;;;;5487348;26;20008;-83
2024/04/13 13:31:09;;;;;;;6.60;2.72;;;;;;;;;;5479797;26;20452;-83
2024/04/13 13:33:54;;;;;;;7.20;3.03;;;;;;;;;;5462730;26;20009;-82
2024/04/13 13:36:40;;;;;;;6.38;3.03;;;;;;;;;;5487930;26;20001;-82
2024/04/13 13:39:26;;;;;;;6.95;2.78;;;;;;;;;;5497856;26;20045;-85
2024/04/13 13:42:11;;;;;;;3.30;2.22;;;;;;;;;;5487692;26;20032;-83
2024/04/13 13:44:56;;;;;;;5.82;2.53;;;;;;;;;;5461446;26;20002;-82
2024/04/13 13:47:41;;;;;;;7.30;2.78;;;;;;;;;;5454853;26;20013;-84
2024/04/13 13:50:27;;;;;;;7.30;2.90;;;;;;;;;;5479853;26;20013;-82
2024/04/13 13:53:12;;;;;;;4.80;2.20;;;;;;;;;;5453420;26;20002;-83
2024/04/13 13:55:58;;;;;;;6.20;3.03;;;;;;;;;;5493875;26;20001;-82
2024/04/13 13:58:43;;;;;;;3.35;2.25;;;;;;;;;;5503302;26;20005;-81
2024/04/13 14:01:28;;;;;;;6.43;2.60;;;;;;;;;;5513856;26;19997;-85
2024/04/13 14:04:14;;;;;;;7.05;2.50;;;;;;;;;;5505887;26;20475;-79
2024/04/13 14:06:59;;;;;;;6.07;2.55;;;;;;;;;;5454652;26;19990;-78
2024/04/13 14:09:45;;;;;;;5.35;2.08;;;;;;;;;;5506187;26;20004;-78
2024/04/13 14:12:30;;;;;;;4.88;2.67;;;;;;;;;;5495303;26;19994;-78
2024/04/13 14:15:16;;;;;;;3.90;2.00;;;;;;;;;;5507613;26;19998;-78
2024/04/13 14:18:02;;;;;;;4.32;2.20;;;;;;;;;;5511091;26;19998;-80
2024/04/13 14:20:47;;;;;;;7.07;2.85;;;;;;;;;;5508694;26;19997;-81
2024/04/13 14:23:32;;;;;;;4.85;2.38;;;;;;;;;;5491629;26;19993;-80
2024/04/13 14:26:17;;;;;;;5.57;2.15;;;;;;;;;;5507490;26;20006;-80
2024/04/13 14:29:04;;;;;;;4.55;2.20;;;;;;;;;;5480689;26;20002;-80
2024/04/13 14:31:50;;;;;;;7.07;2.63;;;;;;;;;;5454722;26;20070;-79
2024/04/13 14:34:36;;;;;;;3.83;2.45;;;;;;;;;;5478840;26;20006;-79
2024/04/13 14:37:22;;;;;;;6.68;2.63;;;;;;;;;;5462259;26;20021;-80
2024/04/13 14:40:07;;;;;;;4.60;1.75;;;;;;;;;;5495567;26;20008;-80
2024/04/13 14:42:53;;;;;;;4.25;2.00;;;;;;;;;;5498037;26;20029;-79
2024/04/13 14:45:38;;;;;;;7.70;2.55;;;;;;;;;;5493351;26;20316;-79
2024/04/13 14:48:23;;;;;;;5.28;2.38;;;;;;;;;;5488981;26;20000;-78
2024/04/13 14:51:09;;;;;;;5.55;2.50;;;;;;;;;;5484609;26;20066;-77
2024/04/13 14:53:54;;;;;;;5.40;2.60;;;;;;;;;;5481792;26;20633;-77
2024/04/13 14:56:39;;;;;;;3.78;2.08;;;;;;;;;;5487312;26;20001;-76
2024/04/13 14:59:24;;;;;;;8.77;2.65;;;;;;;;;;5487293;26;20061;-76
2024/04/13 15:02:10;;;;;;;7.03;2.15;;;;;;;;;;5463667;26;20029;-79
2024/04/13 15:04:55;;;;;;;5.07;2.70;;;;;;;;;;5490042;26;20449;-77
2024/04/13 15:07:40;;;;;;;6.90;3.00;;;;;;;;;;5489478;26;19997;-79
2024/04/13 15:10:28;;;;;;;7.65;3.17;;;;;;;;;;5489792;26;19993;-77
2024/04/13 15:13:13;;;;;;;10.88;3.70;;;;;;;;;;5489862;26;20013;-77
2024/04/13 15:15:59;;;;;;;7.20;2.53;;;;;;;;;;5489288;26;20001;-77
2024/04/13 15:18:45;;;;;;;7.68;2.58;;;;;;;;;;5478333;26;19998;-76
2024/04/13 15:21:30;;;;;;;8.00;2.60;;;;;;;;;;5453565;26;20043;-80
2024/04/13 15:24:16;;;;;;;6.72;3.17;;;;;;;;;;5474366;26;19993;-76
2024/04/13 15:27:01;;;;;;;8.30;2.75;;;;;;;;;;5489269;26;20039;-76
2024/04/13 15:29:46;;;;;;;6.60;2.55;;;;;;;;;;5495909;26;20040;-75
2024/04/13 15:32:31;;;;;;;12.27;3.17;;;;;;;;;;5497151;26;20285;-79
2024/04/13 15:35:17;;;;;;;6.97;2.60;;;;;;;;;;5514401;26;20391;-79
2024/04/13 15:38:02;;;;;;;5.28;2.50;;;;;;;;;;5451858;26;20066;-79
2024/04/13 15:40:47;;;;;;;6.07;2.70;;;;;;;;;;5452729;26;19997;-78
2024/04/13 15:43:32;;;;;;;6.70;2.90;;;;;;;;;;5474345;26;20012;-78
2024/04/13 15:46:19;;;;;;;7.68;2.78;;;;;;;;;;5486963;26;19997;-78
2024/04/13 15:49:05;;;;;;;7.55;4.22;;;;;;;;;;5501507;26;20016;-79
2024/04/13 15:51:50;;;;;;;6.28;2.88;;;;;;;;;;5514647;26;20081;-79
2024/04/13 15:54:35;;;;;;;7.20;3.05;;;;;;;;;;5496645;26;19998;-79
2024/04/13 15:57:20;;;;;;;5.85;3.13;;;;;;;;;;5487163;26;19997;-77
2024/04/13 16:00:09;;;;;;;5.68;2.58;;;;;;;;;;5496477;26;20511;-79
2024/04/13 16:06:15;;;;;;;5.15;3.10;;;;;;;;;;5374761;26;20007;-78
2024/04/13 16:09:00;;;;;;;9.55;3.53;;;;;;;;;;5512946;26;19997;-78
2024/04/13 16:11:45;;;;;;;4.57;2.58;;;;;;;;;;5512544;26;20001;-78
2024/04/13 16:14:31;;;;;;;5.90;2.70;;;;;;;;;;5462782;26;20009;-79
2024/04/13 16:17:16;;;;;;;9.13;3.13;;;;;;;;;;5487948;26;19997;-78
2024/04/13 16:20:01;;;;;;;6.55;2.40;;;;;;;;;;5486909;26;19993;-78
2024/04/13 16:22:50;;;;;;;5.80;2.30;;;;;;;;;;5487405;26;20001;-79
2024/04/13 16:25:35;;;;;;;5.10;2.55;;;;;;;;;;5487160;26;20078;-78
2024/04/13 16:28:20;;;;;;;7.85;2.45;;;;;;;;;;5486531;26;20065;-79
2024/04/13 16:31:05;;;;;;;6.57;2.38;;;;;;;;;;5486522;26;19998;-79
2024/04/13 16:33:54;;;;;;;4.57;2.20;;;;;;;;;;5487396;26;19998;-79